createdAt,value
2016-09-18T00:00:07.261Z,14.78
2016-09-18T00:01:06.673Z,14.81
2016-09-18T00:02:06.687Z,14.77
2016-09-18T00:03:07.332Z,14.7
2016-09-18T00:04:07.349Z,14.74
2016-09-18T00:05:07.064Z,14.77
2016-09-18T00:06:07.406Z,14.68
2016-09-18T00:07:07.422Z,14.68
2016-09-18T00:08:07.121Z,14.67
2016-09-18T00:09:07.456Z,14.59
2016-09-18T00:10:07.303Z,14.58
2016-09-18T00:11:07.213Z,14.52
2016-09-18T00:12:07.586Z,14.66
2016-09-18T00:13:07.247Z,14.66
2016-09-18T00:14:06.982Z,14.55
2016-09-18T00:15:07.581Z,14.61
2016-09-18T00:16:07.353Z,14.55
2016-09-18T00:17:07.325Z,14.55
2016-09-18T00:18:07.655Z,14.62
2016-09-18T00:19:07.684Z,14.61
2016-09-18T00:20:07.699Z,14.61
2016-09-18T00:21:07.714Z,14.58
2016-09-18T00:22:07.410Z,14.59
2016-09-18T00:23:07.450Z,14.56
2016-09-18T00:24:07.466Z,14.53
2016-09-18T00:25:07.805Z,14.62
2016-09-18T00:26:07.844Z,14.61
2016-09-18T00:27:07.541Z,14.61
2016-09-18T00:28:07.549Z,14.66
2016-09-18T00:29:07.565Z,14.58
2016-09-18T00:30:07.917Z,14.55
2016-09-18T00:31:07.622Z,14.53
2016-09-18T00:32:07.938Z,14.48
2016-09-18T00:33:07.655Z,14.58
2016-09-18T00:34:07.685Z,14.55
2016-09-18T00:35:07.381Z,14.51
2016-09-18T00:36:08.035Z,14.55
2016-09-18T00:37:07.750Z,14.56
2016-09-18T00:38:07.766Z,14.59
2016-09-18T00:39:07.783Z,14.61
2016-09-18T00:40:07.815Z,14.52
2016-09-18T00:41:07.834Z,14.44
2016-09-18T00:42:08.174Z,14.44
2016-09-18T00:43:08.183Z,14.48
2016-09-18T00:44:08.195Z,14.4
2016-09-18T00:45:07.920Z,14.45
2016-09-18T00:46:08.259Z,14.45
2016-09-18T00:47:08.364Z,14.45
2016-09-18T00:48:08.302Z,14.43
2016-09-18T00:49:08.315Z,14.41
2016-09-18T00:50:08.322Z,14.44
2016-09-18T00:51:08.355Z,14.44
2016-09-18T00:52:08.066Z,14.36
2016-09-18T00:53:07.779Z,14.38
2016-09-18T00:54:08.103Z,14.4
2016-09-18T00:55:08.134Z,14.37
2016-09-18T00:56:08.453Z,14.41
2016-09-18T00:57:08.483Z,14.36
2016-09-18T00:58:08.510Z,14.36
2016-09-18T00:59:08.591Z,14.31
2016-09-18T01:00:08.535Z,14.43
2016-09-18T01:01:08.275Z,14.43
2016-09-18T01:02:08.596Z,14.36
2016-09-18T01:03:08.293Z,14.38
2016-09-18T01:04:08.674Z,14.36
2016-09-18T01:05:08.347Z,14.43
2016-09-18T01:06:08.363Z,14.33
2016-09-18T01:07:08.383Z,14.26
2016-09-18T01:08:08.714Z,14.25
2016-09-18T01:09:08.433Z,14.2
2016-09-18T01:10:08.456Z,14.2
2016-09-18T01:11:08.590Z,14.19
2016-09-18T01:12:08.479Z,14.25
2016-09-18T01:13:08.592Z,14.25
2016-09-18T01:14:08.511Z,14.18
2016-09-18T01:15:08.555Z,14.22
2016-09-18T01:16:08.894Z,14.13
2016-09-18T01:17:08.894Z,14.19
2016-09-18T01:18:08.921Z,14.13
2016-09-18T01:19:08.962Z,14.11
2016-09-18T01:20:08.961Z,14.07
2016-09-18T01:21:08.987Z,14.08
2016-09-18T01:22:08.997Z,14
2016-09-18T01:23:09.041Z,13.98
2016-09-18T01:24:09.042Z,13.97
2016-09-18T01:25:09.084Z,14.01
2016-09-18T01:26:08.833Z,14.03
2016-09-18T01:27:08.791Z,13.95
2016-09-18T01:28:08.834Z,13.94
2016-09-18T01:29:09.161Z,13.91
2016-09-18T01:30:09.162Z,13.89
2016-09-18T01:31:09.183Z,13.89
2016-09-18T01:32:09.199Z,13.82
2016-09-18T01:33:09.230Z,13.91
2016-09-18T01:34:09.233Z,13.83
2016-09-18T01:35:08.663Z,13.82
2016-09-18T01:36:09.314Z,13.82
2016-09-18T01:37:09.401Z,13.83
2016-09-18T01:38:09.023Z,13.86
2016-09-18T01:39:08.743Z,13.8
2016-09-18T01:40:09.062Z,13.83
2016-09-18T01:41:09.393Z,13.82
2016-09-18T01:42:09.110Z,13.85
2016-09-18T01:43:08.819Z,13.75
2016-09-18T01:44:09.456Z,13.73
2016-09-18T01:45:08.863Z,13.75
2016-09-18T01:46:09.501Z,13.78
2016-09-18T01:47:09.223Z,13.76
2016-09-18T01:48:09.343Z,13.76
2016-09-18T01:49:09.576Z,13.73
2016-09-18T01:50:09.272Z,13.73
2016-09-18T01:51:09.595Z,13.78
2016-09-18T01:52:09.659Z,13.71
2016-09-18T01:53:09.643Z,13.8
2016-09-18T01:54:09.361Z,13.8
2016-09-18T01:55:09.382Z,13.7
2016-09-18T01:56:09.415Z,13.7
2016-09-18T01:57:09.728Z,13.76
2016-09-18T01:58:09.131Z,13.7
2016-09-18T01:59:09.453Z,13.8
2016-09-18T02:00:09.484Z,13.73
2016-09-18T02:01:09.841Z,13.75
2016-09-18T02:02:09.509Z,13.71
2016-09-18T02:03:09.860Z,13.76
2016-09-18T02:04:09.895Z,13.82
2016-09-18T02:05:09.570Z,13.79
2016-09-18T02:06:09.298Z,13.67
2016-09-18T02:07:09.941Z,13.62
2016-09-18T02:08:09.952Z,13.6
2016-09-18T02:09:09.972Z,13.68
2016-09-18T02:10:09.984Z,13.64
2016-09-18T02:11:10.012Z,13.54
2016-09-18T02:12:09.731Z,13.54
2016-09-18T02:13:10.053Z,13.64
2016-09-18T02:14:09.766Z,13.62
2016-09-18T02:15:10.102Z,13.6
2016-09-18T02:16:10.254Z,13.58
2016-09-18T02:17:09.830Z,13.58
2016-09-18T02:18:09.544Z,13.65
2016-09-18T02:19:09.550Z,13.5
2016-09-18T02:20:10.202Z,13.52
2016-09-18T02:21:09.607Z,13.46
2016-09-18T02:22:10.252Z,13.45
2016-09-18T02:23:09.656Z,13.5
2016-09-18T02:24:09.964Z,13.52
2016-09-18T02:25:09.991Z,13.54
2016-09-18T02:26:10.330Z,13.54
2016-09-18T02:27:10.351Z,13.52
2016-09-18T02:28:10.374Z,13.52
2016-09-18T02:29:10.072Z,13.52
2016-09-18T02:30:10.093Z,13.45
2016-09-18T02:31:10.442Z,13.46
2016-09-18T02:32:10.452Z,13.45
2016-09-18T02:33:10.162Z,13.46
2016-09-18T02:34:10.493Z,13.36
2016-09-18T02:35:10.536Z,13.4
2016-09-18T02:36:09.914Z,13.37
2016-09-18T02:37:10.242Z,13.45
2016-09-18T02:38:10.258Z,13.37
2016-09-18T02:39:10.618Z,13.42
2016-09-18T02:40:10.294Z,13.31
2016-09-18T02:41:10.331Z,13.36
2016-09-18T02:42:10.033Z,13.36
2016-09-18T02:43:10.384Z,13.36
2016-09-18T02:44:10.390Z,13.36
2016-09-18T02:45:10.107Z,13.33
2016-09-18T02:46:10.429Z,13.33
2016-09-18T02:47:10.180Z,13.24
2016-09-18T02:48:10.462Z,13.24
2016-09-18T02:49:10.484Z,13.23
2016-09-18T02:50:10.898Z,13.33
2016-09-18T02:51:10.855Z,13.37
2016-09-18T02:52:10.542Z,13.31
2016-09-18T02:53:10.252Z,13.27
2016-09-18T02:54:10.593Z,13.21
2016-09-18T02:55:10.923Z,13.21
2016-09-18T02:56:10.944Z,13.23
2016-09-18T02:57:10.962Z,13.16
2016-09-18T02:58:10.672Z,13.17
2016-09-18T02:59:10.804Z,13.33
2016-09-18T03:00:10.713Z,13.19
2016-09-18T03:01:10.743Z,13.2
2016-09-18T03:02:10.462Z,13.17
2016-09-18T03:03:10.850Z,13.23
2016-09-18T03:04:10.857Z,13.2
2016-09-18T03:05:11.183Z,13.16
2016-09-18T03:06:11.149Z,13.16
2016-09-18T03:07:10.863Z,13.12
2016-09-18T03:08:11.182Z,13.23
2016-09-18T03:09:11.212Z,13.26
2016-09-18T03:10:10.604Z,13.13
2016-09-18T03:11:10.632Z,13.19
2016-09-18T03:12:10.954Z,13.17
2016-09-18T03:13:11.288Z,13.11
2016-09-18T03:14:10.699Z,13.2
2016-09-18T03:15:11.032Z,13.2
2016-09-18T03:16:11.044Z,13.2
2016-09-18T03:17:11.114Z,13.16
2016-09-18T03:18:11.392Z,13.24
2016-09-18T03:19:11.415Z,13.13
2016-09-18T03:20:11.422Z,13.13
2016-09-18T03:21:10.829Z,13.02
2016-09-18T03:22:11.150Z,13.05
2016-09-18T03:23:11.189Z,13.02
2016-09-18T03:24:11.523Z,13.05
2016-09-18T03:25:11.230Z,13.05
2016-09-18T03:26:11.671Z,13.09
2016-09-18T03:27:11.583Z,13.12
2016-09-18T03:28:11.602Z,13.11
2016-09-18T03:29:11.297Z,13.16
2016-09-18T03:30:11.633Z,13.05
2016-09-18T03:31:11.663Z,13.09
2016-09-18T03:32:11.670Z,13.23
2016-09-18T03:33:11.696Z,13.06
2016-09-18T03:34:11.403Z,13.09
2016-09-18T03:35:11.450Z,13.16
2016-09-18T03:36:11.764Z,13.26
2016-09-18T03:37:11.783Z,13.16
2016-09-18T03:38:11.802Z,13.17
2016-09-18T03:39:11.501Z,13.2
2016-09-18T03:40:11.862Z,13.2
2016-09-18T03:41:11.241Z,13.08
2016-09-18T03:42:11.874Z,13.21
2016-09-18T03:43:11.902Z,13.19
2016-09-18T03:44:11.630Z,13.19
2016-09-18T03:45:11.332Z,13.17
2016-09-18T03:46:11.643Z,13.2
2016-09-18T03:47:11.674Z,13.16
2016-09-18T03:48:11.691Z,13.16
2016-09-18T03:49:12.023Z,13.01
2016-09-18T03:50:12.029Z,13.09
2016-09-18T03:51:11.463Z,13.05
2016-09-18T03:52:11.783Z,13.17
2016-09-18T03:53:11.502Z,13.05
2016-09-18T03:54:11.813Z,13.12
2016-09-18T03:55:11.830Z,13.11
2016-09-18T03:56:12.177Z,13.02
2016-09-18T03:57:12.178Z,13.08
2016-09-18T03:58:11.924Z,13.02
2016-09-18T03:59:12.231Z,13.03
2016-09-18T04:00:11.931Z,13.06
2016-09-18T04:01:11.632Z,13.12
2016-09-18T04:02:12.381Z,13.11
2016-09-18T04:03:12.189Z,13.13
2016-09-18T04:04:12.332Z,13.08
2016-09-18T04:05:12.353Z,13.02
2016-09-18T04:06:12.063Z,13.02
2016-09-18T04:07:12.073Z,12.93
2016-09-18T04:08:12.102Z,12.98
2016-09-18T04:09:12.430Z,12.99
2016-09-18T04:10:12.444Z,12.95
2016-09-18T04:11:12.494Z,13.01
2016-09-18T04:12:12.181Z,12.93
2016-09-18T04:13:12.501Z,13.01
2016-09-18T04:14:12.223Z,13.01
2016-09-18T04:15:12.363Z,12.91
2016-09-18T04:16:12.567Z,12.91
2016-09-18T04:17:11.973Z,12.98
2016-09-18T04:18:12.774Z,12.88
2016-09-18T04:19:12.317Z,12.9
2016-09-18T04:20:12.340Z,13.01
2016-09-18T04:21:12.676Z,12.88
2016-09-18T04:22:12.062Z,12.9
2016-09-18T04:23:12.726Z,12.91
2016-09-18T04:24:12.505Z,12.87
2016-09-18T04:25:12.452Z,13.01
2016-09-18T04:26:12.463Z,12.9
2016-09-18T04:27:12.785Z,12.83
2016-09-18T04:28:12.193Z,12.99
2016-09-18T04:29:12.524Z,13.03
2016-09-18T04:30:12.542Z,12.81
2016-09-18T04:31:12.878Z,13.01
2016-09-18T04:32:12.932Z,12.9
2016-09-18T04:33:12.614Z,13.01
2016-09-18T04:34:12.633Z,13.01
2016-09-18T04:35:12.963Z,12.87
2016-09-18T04:36:12.771Z,12.87
2016-09-18T04:37:12.743Z,12.87
2016-09-18T04:38:12.699Z,12.95
2016-09-18T04:39:12.774Z,12.91
2016-09-18T04:40:12.878Z,12.88
2016-09-18T04:41:12.775Z,12.84
2016-09-18T04:42:12.789Z,12.78
2016-09-18T04:43:13.174Z,12.78
2016-09-18T04:44:12.941Z,12.81
2016-09-18T04:45:12.646Z,12.93
2016-09-18T04:46:13.383Z,12.87
2016-09-18T04:47:12.900Z,12.84
2016-09-18T04:48:12.920Z,12.8
2016-09-18T04:49:13.232Z,12.83
2016-09-18T04:50:13.262Z,12.75
2016-09-18T04:51:13.288Z,12.78
2016-09-18T04:52:13.299Z,12.75
2016-09-18T04:53:13.433Z,12.78
2016-09-18T04:54:13.024Z,12.73
2016-09-18T04:55:13.361Z,12.73
2016-09-18T04:56:13.065Z,12.7
2016-09-18T04:57:12.782Z,12.73
2016-09-18T04:58:13.414Z,12.78
2016-09-18T04:59:13.128Z,12.83
2016-09-18T05:00:12.944Z,12.83
2016-09-18T05:01:13.467Z,12.73
2016-09-18T05:02:13.504Z,12.75
2016-09-18T05:03:13.525Z,12.76
2016-09-18T05:04:13.219Z,12.75
2016-09-18T05:05:13.251Z,12.75
2016-09-18T05:06:13.692Z,12.84
2016-09-18T05:07:13.301Z,12.83
2016-09-18T05:08:13.715Z,12.78
2016-09-18T05:09:13.336Z,12.86
2016-09-18T05:10:13.674Z,12.73
2016-09-18T05:11:13.687Z,12.75
2016-09-18T05:12:13.697Z,12.78
2016-09-18T05:13:13.400Z,12.78
2016-09-18T05:14:13.422Z,12.9
2016-09-18T05:15:13.454Z,12.88
2016-09-18T05:16:13.474Z,12.88
2016-09-18T05:17:13.809Z,12.91
2016-09-18T05:18:13.826Z,12.8
2016-09-18T05:19:13.535Z,12.84
2016-09-18T05:20:13.550Z,12.95
2016-09-18T05:21:13.886Z,12.95
2016-09-18T05:22:13.594Z,12.99
2016-09-18T05:23:13.308Z,13.03
2016-09-18T05:24:13.636Z,12.94
2016-09-18T05:25:13.658Z,12.83
2016-09-18T05:26:13.360Z,12.81
2016-09-18T05:27:14.008Z,12.87
2016-09-18T05:28:13.721Z,12.99
2016-09-18T05:29:13.745Z,12.9
2016-09-18T05:30:13.466Z,12.95
2016-09-18T05:31:14.078Z,12.98
2016-09-18T05:32:13.484Z,12.94
2016-09-18T05:33:14.126Z,12.88
2016-09-18T05:34:13.837Z,13.05
2016-09-18T05:35:14.167Z,12.87
2016-09-18T05:36:14.195Z,12.93
2016-09-18T05:37:14.207Z,12.88
2016-09-18T05:38:13.902Z,12.88
2016-09-18T05:39:14.242Z,13.02
2016-09-18T05:40:14.257Z,12.99
2016-09-18T05:41:14.275Z,12.98
2016-09-18T05:42:14.336Z,13.08
2016-09-18T05:43:14.337Z,13.03
2016-09-18T05:44:14.045Z,13.11
2016-09-18T05:45:14.396Z,13.08
2016-09-18T05:46:14.092Z,13.17
2016-09-18T05:47:14.110Z,13.21
2016-09-18T05:48:14.147Z,13.2
2016-09-18T05:49:14.458Z,13.17
2016-09-18T05:50:14.468Z,13.17
2016-09-18T05:51:14.487Z,13.26
2016-09-18T05:52:14.862Z,13.3
2016-09-18T05:53:15.169Z,13.33
2016-09-18T05:54:15.037Z,13.31
2016-09-18T05:55:14.458Z,13.57
2016-09-18T05:56:14.437Z,13.91
2016-09-18T05:57:14.525Z,14.51
2016-09-18T05:58:14.784Z,15.17
2016-09-18T05:59:14.829Z,15.8
2016-09-18T06:00:14.666Z,16.51
2016-09-18T06:01:14.733Z,16.98
2016-09-18T06:02:14.810Z,17.37
2016-09-18T06:03:14.945Z,17.88
2016-09-18T06:04:14.545Z,18.46
2016-09-18T06:05:14.515Z,18.89
2016-09-18T06:06:14.549Z,19.07
2016-09-18T06:07:14.662Z,19.11
2016-09-18T06:08:14.855Z,18.98
2016-09-18T06:09:15.041Z,19.05
2016-09-18T06:10:14.595Z,19.09
2016-09-18T06:11:14.643Z,19.32
2016-09-18T06:12:14.935Z,19.72
2016-09-18T06:13:14.653Z,20.29
2016-09-18T06:14:14.685Z,20.29
2016-09-18T06:15:14.770Z,20.48
2016-09-18T06:16:14.729Z,20.33
2016-09-18T06:17:14.762Z,20.52
2016-09-18T06:18:14.805Z,20.74
2016-09-18T06:19:15.107Z,21.03
2016-09-18T06:20:15.197Z,21.38
2016-09-18T06:21:14.535Z,21.66
2016-09-18T06:22:14.864Z,21.48
2016-09-18T06:23:15.270Z,20.9
2016-09-18T06:24:15.206Z,21.04
2016-09-18T06:25:15.242Z,21.7
2016-09-18T06:26:14.655Z,22.04
2016-09-18T06:27:15.012Z,21.91
2016-09-18T06:28:15.025Z,22.07
2016-09-18T06:29:15.163Z,22.19
2016-09-18T06:30:15.385Z,22.1
2016-09-18T06:31:15.091Z,22.06
2016-09-18T06:32:15.426Z,22.37
2016-09-18T06:33:15.253Z,22.67
2016-09-18T06:34:15.181Z,23.11
2016-09-18T06:35:15.210Z,23.04
2016-09-18T06:36:15.257Z,23.28
2016-09-18T06:37:14.954Z,23.11
2016-09-18T06:38:15.591Z,23.18
2016-09-18T06:39:15.612Z,23.04
2016-09-18T06:40:15.651Z,22.99
2016-09-18T06:41:15.672Z,23.04
2016-09-18T06:42:15.805Z,22.84
2016-09-18T06:43:15.414Z,23.26
2016-09-18T06:44:15.807Z,23.77
2016-09-18T06:45:15.772Z,23.62
2016-09-18T06:46:15.823Z,23.85
2016-09-18T06:47:15.524Z,23.54
2016-09-18T06:48:15.574Z,23.86
2016-09-18T06:49:15.585Z,24.31
2016-09-18T06:50:15.604Z,24.55
2016-09-18T06:51:15.616Z,24.22
2016-09-18T06:52:15.986Z,24.21
2016-09-18T06:53:16.012Z,23.95
2016-09-18T06:54:16.024Z,24.03
2016-09-18T06:55:16.050Z,24.13
2016-09-18T06:56:15.761Z,24.01
2016-09-18T06:57:15.804Z,24.06
2016-09-18T06:58:16.134Z,23.86
2016-09-18T06:59:15.854Z,23.69
2016-09-18T07:00:15.894Z,23.91
2016-09-18T07:01:15.887Z,23.82
2016-09-18T07:02:15.631Z,23.79
2016-09-18T07:03:16.275Z,23.96
2016-09-18T07:04:16.341Z,23.91
2016-09-18T07:05:16.018Z,23.76
2016-09-18T07:06:16.354Z,23.86
2016-09-18T07:07:16.071Z,23.91
2016-09-18T07:08:16.452Z,24.04
2016-09-18T07:09:16.440Z,24.18
2016-09-18T07:10:16.457Z,24.43
2016-09-18T07:11:16.496Z,24.28
2016-09-18T07:12:16.580Z,24
2016-09-18T07:13:16.247Z,23.64
2016-09-18T07:14:16.289Z,23.45
2016-09-18T07:15:16.602Z,23.81
2016-09-18T07:16:16.631Z,23.58
2016-09-18T07:17:16.672Z,23.96
2016-09-18T07:18:16.692Z,24.01
2016-09-18T07:19:16.711Z,24.01
2016-09-18T07:20:16.744Z,24.19
2016-09-18T07:21:16.905Z,24.01
2016-09-18T07:22:16.825Z,23.99
2016-09-18T07:23:16.843Z,24.01
2016-09-18T07:24:16.965Z,24.01
2016-09-18T07:25:16.585Z,23.73
2016-09-18T07:26:16.624Z,23.51
2016-09-18T07:27:16.344Z,23.89
2016-09-18T07:28:16.963Z,24.09
2016-09-18T07:29:17.019Z,23.76
2016-09-18T07:30:16.715Z,23.34
2016-09-18T07:31:16.754Z,22.83
2016-09-18T07:32:16.459Z,21.8
2016-09-18T07:33:17.100Z,21.1
2016-09-18T07:34:16.821Z,20.11
2016-09-18T07:35:17.173Z,19.72
2016-09-18T07:36:16.873Z,19.35
2016-09-18T07:37:17.218Z,18.96
2016-09-18T07:38:17.275Z,18.61
2016-09-18T07:39:17.279Z,18.13
2016-09-18T07:40:16.975Z,17.82
2016-09-18T07:41:17.316Z,17.54
2016-09-18T07:42:17.035Z,17.34
2016-09-18T07:43:17.387Z,17.42
2016-09-18T07:44:17.534Z,17.27
2016-09-18T07:45:17.437Z,17.24
2016-09-18T07:46:17.442Z,17.22
2016-09-18T07:47:17.188Z,17.13
2016-09-18T07:48:17.184Z,17.13
2016-09-18T07:49:17.516Z,17.13
2016-09-18T07:50:17.543Z,17.16
2016-09-18T07:51:17.565Z,17.24
2016-09-18T07:52:16.964Z,17.31
2016-09-18T07:53:17.629Z,17.37
2016-09-18T07:54:17.638Z,17.31
2016-09-18T07:55:17.662Z,17.37
2016-09-18T07:56:17.691Z,17.38
2016-09-18T07:57:17.082Z,17.39
2016-09-18T07:58:17.736Z,17.38
2016-09-18T07:59:17.462Z,17.46
2016-09-18T08:00:17.788Z,17.42
2016-09-18T08:01:17.818Z,17.35
2016-09-18T08:02:17.500Z,17.38
2016-09-18T08:03:17.870Z,17.38
2016-09-18T08:04:17.876Z,17.38
2016-09-18T08:05:17.889Z,17.35
2016-09-18T08:06:17.617Z,17.35
2016-09-18T08:07:17.956Z,17.34
2016-09-18T08:08:17.974Z,17.37
2016-09-18T08:09:17.994Z,17.31
2016-09-18T08:10:17.386Z,17.3
2016-09-18T08:11:18.040Z,17.41
2016-09-18T08:12:18.071Z,17.39
2016-09-18T08:13:17.775Z,17.47
2016-09-18T08:14:17.485Z,17.42
2016-09-18T08:15:17.833Z,17.56
2016-09-18T08:16:18.165Z,17.52
2016-09-18T08:17:17.884Z,17.56
2016-09-18T08:18:17.889Z,17.54
2016-09-18T08:19:18.228Z,17.73
2016-09-18T08:20:17.955Z,17.65
2016-09-18T08:21:17.965Z,17.73
2016-09-18T08:22:18.315Z,17.79
2016-09-18T08:23:18.335Z,17.73
2016-09-18T08:24:18.334Z,17.69
2016-09-18T08:25:18.377Z,17.68
2016-09-18T08:26:18.386Z,17.72
2016-09-18T08:27:18.519Z,17.6
2016-09-18T08:28:18.157Z,17.72
2016-09-18T08:29:18.151Z,17.75
2016-09-18T08:30:18.184Z,17.75
2016-09-18T08:31:18.201Z,17.78
2016-09-18T08:32:18.575Z,17.82
2016-09-18T08:33:18.554Z,17.91
2016-09-18T08:34:18.616Z,18.02
2016-09-18T08:35:18.307Z,18.13
2016-09-18T08:36:18.313Z,18.21
2016-09-18T08:37:18.651Z,18.16
2016-09-18T08:38:18.677Z,18.08
2016-09-18T08:39:18.697Z,18
2016-09-18T08:40:18.730Z,18.09
2016-09-18T08:41:18.745Z,18.13
2016-09-18T08:42:18.810Z,18.11
2016-09-18T08:43:18.789Z,18.15
2016-09-18T08:44:18.877Z,18.28
2016-09-18T08:45:18.835Z,18.45
2016-09-18T08:46:18.554Z,18.58
2016-09-18T08:47:18.592Z,18.37
2016-09-18T08:48:18.917Z,18.26
2016-09-18T08:49:18.625Z,18.27
2016-09-18T08:50:18.947Z,18.36
2016-09-18T08:51:18.994Z,18.31
2016-09-18T08:52:19.057Z,18.3
2016-09-18T08:53:19.103Z,18.49
2016-09-18T08:54:19.146Z,18.57
2016-09-18T08:55:19.071Z,18.66
2016-09-18T08:56:18.786Z,18.61
2016-09-18T08:57:19.120Z,18.76
2016-09-18T08:58:19.137Z,18.73
2016-09-18T08:59:19.163Z,18.81
2016-09-18T09:00:19.185Z,18.89
2016-09-18T09:01:19.194Z,18.92
2016-09-18T09:02:18.925Z,18.81
2016-09-18T09:03:19.244Z,18.96
2016-09-18T09:04:19.336Z,18.98
2016-09-18T09:05:19.373Z,18.89
2016-09-18T09:06:19.416Z,19.08
2016-09-18T09:07:19.047Z,19.24
2016-09-18T09:08:19.372Z,19.24
2016-09-18T09:09:19.405Z,19.16
2016-09-18T09:10:19.133Z,19.22
2016-09-18T09:11:19.455Z,19.17
2016-09-18T09:12:19.493Z,19.15
2016-09-18T09:13:19.185Z,19.19
2016-09-18T09:14:19.524Z,19.17
2016-09-18T09:15:19.545Z,19.26
2016-09-18T09:16:19.276Z,19.11
2016-09-18T09:17:19.588Z,18.97
2016-09-18T09:18:19.005Z,18.94
2016-09-18T09:19:19.331Z,18.94
2016-09-18T09:20:19.356Z,19.05
2016-09-18T09:21:19.448Z,19.05
2016-09-18T09:22:19.715Z,19.09
2016-09-18T09:23:19.736Z,19.09
2016-09-18T09:24:19.467Z,19.05
2016-09-18T09:25:19.589Z,19.09
2016-09-18T09:26:19.514Z,19.16
2016-09-18T09:27:19.925Z,19.11
2016-09-18T09:28:19.547Z,19.22
2016-09-18T09:29:19.877Z,19.22
2016-09-18T09:30:19.918Z,19.15
2016-09-18T09:31:19.954Z,19.08
2016-09-18T09:32:19.957Z,18.96
2016-09-18T09:33:19.973Z,18.96
2016-09-18T09:34:20.011Z,18.94
2016-09-18T09:35:20.025Z,19.09
2016-09-18T09:36:19.755Z,19.04
2016-09-18T09:37:19.773Z,18.97
2016-09-18T09:38:19.782Z,19.16
2016-09-18T09:39:20.122Z,19.23
2016-09-18T09:40:20.164Z,19.44
2016-09-18T09:41:20.175Z,19.53
2016-09-18T09:42:19.886Z,19.75
2016-09-18T09:43:20.113Z,19.84
2016-09-18T09:44:20.236Z,19.78
2016-09-18T09:45:20.284Z,19.79
2016-09-18T09:46:19.985Z,19.84
2016-09-18T09:47:20.316Z,19.72
2016-09-18T09:48:20.356Z,19.62
2016-09-18T09:49:19.743Z,19.59
2016-09-18T09:50:20.395Z,19.63
2016-09-18T09:51:20.421Z,19.64
2016-09-18T09:52:20.439Z,19.71
2016-09-18T09:53:20.173Z,19.64
2016-09-18T09:54:20.482Z,19.55
2016-09-18T09:55:20.523Z,19.63
2016-09-18T09:56:20.536Z,19.37
2016-09-18T09:57:20.556Z,19.24
2016-09-18T09:58:20.593Z,19.24
2016-09-18T09:59:20.619Z,19.38
2016-09-18T10:00:20.638Z,19.32
2016-09-18T10:01:20.667Z,19.47
2016-09-18T10:02:20.688Z,19.62
2016-09-18T10:03:20.708Z,19.45
2016-09-18T10:04:20.726Z,19.45
2016-09-18T10:05:20.752Z,19.42
2016-09-18T10:06:20.787Z,19.42
2016-09-18T10:07:21.005Z,19.53
2016-09-18T10:08:20.847Z,19.57
2016-09-18T10:09:20.859Z,19.72
2016-09-18T10:10:20.628Z,19.81
2016-09-18T10:11:20.906Z,19.84
2016-09-18T10:12:20.945Z,19.92
2016-09-18T10:13:20.993Z,20.08
2016-09-18T10:14:21.034Z,20.42
2016-09-18T10:15:20.684Z,20.52
2016-09-18T10:16:20.735Z,20.6
2016-09-18T10:17:20.745Z,20.59
2016-09-18T10:18:21.072Z,20.53
2016-09-18T10:19:20.808Z,20.37
2016-09-18T10:20:20.821Z,20.22
2016-09-18T10:21:21.271Z,20.29
2016-09-18T10:22:20.993Z,20.46
2016-09-18T10:23:21.524Z,20.53
2016-09-18T10:24:20.966Z,20.52
2016-09-18T10:25:21.066Z,20.4
2016-09-18T10:26:20.980Z,20.17
2016-09-18T10:27:21.315Z,20.08
2016-09-18T10:28:21.526Z,20.07
2016-09-18T10:29:21.455Z,20.19
2016-09-18T10:30:21.488Z,20.19
2016-09-18T10:31:21.095Z,20.3
2016-09-18T10:32:21.522Z,20.18
2016-09-18T10:33:21.469Z,20.33
2016-09-18T10:34:21.491Z,20.17
2016-09-18T10:35:21.546Z,20.32
2016-09-18T10:36:21.549Z,20.37
2016-09-18T10:37:21.556Z,20.4
2016-09-18T10:38:21.591Z,20.39
2016-09-18T10:39:21.607Z,20.3
2016-09-18T10:40:21.834Z,20.27
2016-09-18T10:41:21.654Z,20.29
2016-09-18T10:42:21.690Z,20.36
2016-09-18T10:43:21.707Z,20.32
2016-09-18T10:44:21.564Z,20.29
2016-09-18T10:45:21.757Z,20.21
2016-09-18T10:46:21.778Z,20.32
2016-09-18T10:47:21.815Z,20.44
2016-09-18T10:48:21.563Z,20.59
2016-09-18T10:49:21.867Z,20.6
2016-09-18T10:50:21.883Z,20.74
2016-09-18T10:51:22.198Z,20.78
2016-09-18T10:52:21.953Z,20.78
2016-09-18T10:53:21.661Z,20.88
2016-09-18T10:54:21.984Z,21.15
2016-09-18T10:55:22.050Z,21.17
2016-09-18T10:56:22.015Z,21.25
2016-09-18T10:57:22.052Z,21.28
2016-09-18T10:58:22.085Z,21.25
2016-09-18T10:59:22.176Z,21.29
2016-09-18T11:00:22.135Z,21.22
2016-09-18T11:01:22.164Z,21.23
2016-09-18T11:02:21.906Z,20.89
2016-09-18T11:03:22.207Z,20.73
2016-09-18T11:04:22.224Z,20.42
2016-09-18T11:05:22.266Z,20.5
2016-09-18T11:06:22.326Z,20.29
2016-09-18T11:07:22.317Z,20.26
2016-09-18T11:08:22.045Z,20.15
2016-09-18T11:09:22.365Z,20.11
2016-09-18T11:10:22.386Z,20.11
2016-09-18T11:11:22.413Z,20.19
2016-09-18T11:12:22.456Z,20.39
2016-09-18T11:13:22.175Z,20.67
2016-09-18T11:14:22.204Z,20.95
2016-09-18T11:15:22.214Z,21.15
2016-09-18T11:16:22.534Z,21.37
2016-09-18T11:17:22.591Z,21.3
2016-09-18T11:18:22.596Z,21.37
2016-09-18T11:19:22.301Z,21.44
2016-09-18T11:20:22.641Z,21.56
2016-09-18T11:21:22.696Z,21.65
2016-09-18T11:22:22.706Z,21.5
2016-09-18T11:23:22.720Z,21.5
2016-09-18T11:24:22.754Z,21.65
2016-09-18T11:25:22.777Z,21.77
2016-09-18T11:26:22.792Z,21.63
2016-09-18T11:27:22.866Z,21.7
2016-09-18T11:28:22.537Z,21.8
2016-09-18T11:29:22.625Z,21.81
2016-09-18T11:30:23.009Z,21.94
2016-09-18T11:31:22.938Z,22.03
2016-09-18T11:32:22.654Z,21.99
2016-09-18T11:33:22.997Z,21.84
2016-09-18T11:34:23.023Z,21.91
2016-09-18T11:35:23.059Z,21.94
2016-09-18T11:36:23.071Z,21.89
2016-09-18T11:37:23.109Z,21.63
2016-09-18T11:38:23.132Z,21.66
2016-09-18T11:39:22.844Z,21.68
2016-09-18T11:40:23.271Z,21.77
2016-09-18T11:41:23.214Z,21.92
2016-09-18T11:42:23.244Z,22.06
2016-09-18T11:43:23.266Z,22.36
2016-09-18T11:44:23.285Z,22.37
2016-09-18T11:45:23.302Z,22.43
2016-09-18T11:46:23.327Z,22.55
2016-09-18T11:47:23.359Z,22.25
2016-09-18T11:48:23.445Z,22.07
2016-09-18T11:49:23.112Z,22.1
2016-09-18T11:50:23.524Z,22.06
2016-09-18T11:51:23.505Z,22.1
2016-09-18T11:52:23.521Z,22.06
2016-09-18T11:53:23.605Z,21.97
2016-09-18T11:54:23.552Z,22.06
2016-09-18T11:55:23.595Z,22.03
2016-09-18T11:56:23.595Z,22.19
2016-09-18T11:57:23.621Z,22.3
2016-09-18T11:58:23.655Z,22.15
2016-09-18T11:59:23.684Z,22.06
2016-09-18T12:00:23.700Z,21.84
2016-09-18T12:01:23.828Z,21.8
2016-09-18T12:02:23.757Z,21.65
2016-09-18T12:03:23.801Z,21.6
2016-09-18T12:04:23.514Z,21.44
2016-09-18T12:05:23.832Z,21.48
2016-09-18T12:06:23.560Z,21.45
2016-09-18T12:07:23.895Z,21.62
2016-09-18T12:08:23.943Z,21.33
2016-09-18T12:09:23.936Z,21.17
2016-09-18T12:10:23.681Z,21.13
2016-09-18T12:11:24.004Z,21.11
2016-09-18T12:12:24.287Z,20.9
2016-09-18T12:13:23.757Z,20.96
2016-09-18T12:14:24.034Z,21.01
2016-09-18T12:15:23.974Z,21
2016-09-18T12:16:23.507Z,21
2016-09-18T12:17:23.845Z,20.93
2016-09-18T12:18:24.194Z,20.88
2016-09-18T12:19:23.906Z,20.82
2016-09-18T12:20:24.304Z,20.7
2016-09-18T12:21:24.314Z,20.68
2016-09-18T12:22:24.347Z,20.75
2016-09-18T12:23:24.316Z,20.71
2016-09-18T12:24:24.345Z,20.67
2016-09-18T12:25:24.382Z,20.74
2016-09-18T12:26:24.408Z,20.92
2016-09-18T12:27:24.100Z,21.04
2016-09-18T12:28:24.440Z,21.59
2016-09-18T12:29:24.497Z,21.75
2016-09-18T12:30:24.498Z,22.08
2016-09-18T12:31:24.526Z,22.28
2016-09-18T12:32:24.811Z,22.3
2016-09-18T12:33:24.601Z,22.33
2016-09-18T12:34:24.673Z,22.23
2016-09-18T12:35:24.656Z,22.23
2016-09-18T12:36:24.649Z,22.14
2016-09-18T12:37:24.586Z,22.03
2016-09-18T12:38:24.446Z,21.75
2016-09-18T12:39:24.106Z,21.72
2016-09-18T12:40:24.509Z,21.65
2016-09-18T12:41:24.877Z,21.6
2016-09-18T12:42:24.947Z,21.38
2016-09-18T12:43:24.994Z,21.38
2016-09-18T12:44:24.566Z,21.47
2016-09-18T12:45:24.914Z,21.23
2016-09-18T12:46:24.936Z,21.13
2016-09-18T12:47:24.966Z,20.93
2016-09-18T12:48:24.993Z,20.67
2016-09-18T12:49:24.996Z,20.74
2016-09-18T12:50:25.052Z,20.66
2016-09-18T12:51:25.058Z,20.73
2016-09-18T12:52:24.787Z,20.77
2016-09-18T12:53:25.123Z,20.89
2016-09-18T12:54:25.193Z,20.8
2016-09-18T12:55:25.156Z,20.86